Time;durP1;ratioP1;P1;durP2;ratioP2;P2;SDS_P1;SDS_P2;PMS_P1;PMS_P2;Temp;Humidity;BMP_temperature;BMP_pressure;BME280_temperature;BME280_humidity;BME280_pressure;Samples;Min_cycle;Max_cycle;Signal;HPM_P1;HPM_P2
2023/04/24 00:01:52;;;;;;;2.50;1.80;;;;;;;9.10;58.92;99775.63;5006126;28;20100;-73
2023/04/24 00:04:18;;;;;;;3.53;2.40;;;;;;;8.66;60.24;99783.88;5007410;28;20522;-73
2023/04/24 00:06:43;;;;;;;4.25;2.47;;;;;;;8.89;59.59;99781.00;5007241;28;20129;-73
2023/04/24 00:09:10;;;;;;;2.55;2.15;;;;;;;8.92;59.37;99780.84;5011283;28;20049;-73
2023/04/24 00:11:36;;;;;;;4.68;2.58;;;;;;;8.91;59.52;99775.72;5005929;28;20037;-72
2023/04/24 00:14:02;;;;;;;3.00;2.55;;;;;;;8.95;59.07;99770.25;5007689;28;20099;-73
2023/04/24 00:16:28;;;;;;;4.18;2.53;;;;;;;9.02;59.22;99770.78;4989424;28;20379;-73
2023/04/24 00:18:54;;;;;;;2.72;2.15;;;;;;;8.91;58.89;99768.72;5004928;28;20041;-72
2023/04/24 00:21:21;;;;;;;4.20;2.42;;;;;;;8.93;59.30;99761.69;5010041;28;20037;-73
2023/04/24 00:23:47;;;;;;;6.47;2.38;;;;;;;8.96;58.97;99758.94;5016630;28;20048;-73
2023/04/24 00:26:13;;;;;;;3.95;2.70;;;;;;;8.91;59.00;99757.47;4994054;28;20048;-73
2023/04/24 00:28:39;;;;;;;4.53;2.85;;;;;;;8.92;59.42;99757.41;4988840;28;20577;-73
2023/04/24 00:31:04;;;;;;;3.42;2.58;;;;;;;8.83;59.14;99747.44;5010009;28;20118;-74
2023/04/24 00:33:30;;;;;;;3.55;3.00;;;;;;;8.98;59.07;99746.66;4991764;28;20045;-73
2023/04/24 00:35:55;;;;;;;4.57;3.20;;;;;;;8.87;59.32;99740.28;4987005;28;20037;-73
2023/04/24 00:38:21;;;;;;;3.97;3.25;;;;;;;8.92;59.50;99739.16;5008364;28;20073;-73
2023/04/24 00:40:49;;;;;;;4.20;2.85;;;;;;;8.97;58.90;99737.16;4992140;28;20025;-73
2023/04/24 00:43:15;;;;;;;3.72;3.03;;;;;;;9.01;58.47;99737.84;5008912;28;20653;-72
2023/04/24 00:45:41;;;;;;;3.42;1.60;;;;;;;8.87;58.26;99733.31;4993242;28;20034;-75
2023/04/24 00:48:07;;;;;;;2.90;1.77;;;;;;;8.80;58.77;99723.28;5008038;28;20029;-72
2023/04/24 00:50:33;;;;;;;2.70;2.10;;;;;;;8.95;58.20;99728.56;5009831;28;20069;-75
2023/04/24 00:52:58;;;;;;;3.13;2.45;;;;;;;8.95;57.88;99723.34;5009483;28;20033;-75
2023/04/24 00:55:25;;;;;;;4.90;2.10;;;;;;;9.09;57.55;99713.97;4988491;28;20048;-75
2023/04/24 00:57:52;;;;;;;3.65;2.88;;;;;;;9.30;57.26;99712.84;4989271;28;20029;-75
2023/04/24 01:00:18;;;;;;;2.38;2.03;;;;;;;9.27;57.51;99713.00;4992874;28;20524;-75
2023/04/24 01:02:45;;;;;;;3.90;1.98;;;;;;;8.51;58.94;99712.53;5005575;28;20034;-74
2023/04/24 01:05:15;;;;;;;5.00;2.00;;;;;;;8.66;58.14;99710.94;5006439;28;20067;-75
2023/04/24 01:07:45;;;;;;;3.20;1.73;;;;;;;8.92;56.80;99696.63;5008443;28;20122;-75
2023/04/24 01:10:12;;;;;;;2.75;1.30;;;;;;;9.06;56.16;99706.31;5007486;28;20136;-74
2023/04/24 01:12:38;;;;;;;1.90;1.40;;;;;;;8.47;57.59;99706.66;5023896;28;20410;-75
2023/04/24 01:15:06;;;;;;;2.67;1.27;;;;;;;8.73;56.99;99702.75;4996863;28;20490;-75
2023/04/24 01:17:32;;;;;;;1.38;0.70;;;;;;;8.26;58.18;99708.56;4992805;28;20392;-76
2023/04/24 01:19:59;;;;;;;1.52;0.60;;;;;;;8.52;57.50;99704.66;4991383;28;20084;-73
2023/04/24 01:22:25;;;;;;;1.65;0.88;;;;;;;8.42;57.27;99713.00;5010813;28;20033;-72
2023/04/24 01:24:52;;;;;;;0.73;0.43;;;;;;;7.56;57.80;99709.28;5004193;28;20049;-72
2023/04/24 01:27:19;;;;;;;1.15;0.43;;;;;;;7.99;57.16;99705.53;4991887;28;20285;-72
2023/04/24 01:29:44;;;;;;;0.95;0.20;;;;;;;8.17;56.27;99700.34;5007333;28;20342;-74
2023/04/24 01:32:10;;;;;;;0.60;0.20;;;;;;;8.41;55.77;99696.56;4993584;28;20417;-72
2023/04/24 01:34:37;;;;;;;1.27;0.20;;;;;;;7.86;57.59;99699.22;5007321;28;20038;-73
2023/04/24 01:37:02;;;;;;;0.35;0.20;;;;;;;8.26;56.23;99702.50;4997946;28;20071;-72
2023/04/24 01:39:28;;;;;;;2.08;0.28;;;;;;;8.16;56.21;99696.91;5003256;28;20669;-73
2023/04/24 01:41:55;;;;;;;0.40;0.20;;;;;;;8.20;56.09;99697.59;5006166;28;20439;-72
2023/04/24 01:44:21;;;;;;;1.45;0.17;;;;;;;7.78;57.41;99690.94;5007018;28;20046;-72
2023/04/24 01:46:47;;;;;;;2.90;0.10;;;;;;;7.50;58.01;99687.00;5003036;28;20033;-72
2023/04/24 01:49:12;;;;;;;0.60;0.20;;;;;;;7.91;57.00;99698.09;5006794;28;20461;-78
2023/04/24 01:51:38;;;;;;;0.50;0.20;;;;;;;7.59;58.52;99688.34;5009929;28;20021;-78
2023/04/24 01:54:05;;;;;;;0.73;0.30;;;;;;;7.39;58.89;99689.25;4993916;28;20185;-78
2023/04/24 01:56:33;;;;;;;0.88;0.30;;;;;;;7.35;59.16;99693.72;5020745;28;20036;-79
2023/04/24 01:58:59;;;;;;;1.17;0.30;;;;;;;7.30;59.15;99688.72;4999224;28;20049;-77
2023/04/24 02:01:25;;;;;;;5.57;0.43;;;;;;;7.27;59.60;99686.28;5018835;28;20044;-77
2023/04/24 02:03:51;;;;;;;1.23;0.50;;;;;;;7.50;58.71;99679.19;4984482;28;20041;-75
2023/04/24 02:06:16;;;;;;;1.10;0.52;;;;;;;7.37;59.50;99680.66;5016383;28;20420;-75
2023/04/24 02:08:42;;;;;;;2.65;0.40;;;;;;;7.18;60.45;99675.47;5032619;28;20043;-75
2023/04/24 02:11:10;;;;;;;1.02;0.60;;;;;;;7.22;60.11;99677.00;5015452;28;20028;-76
2023/04/24 02:13:36;;;;;;;1.00;0.35;;;;;;;7.47;59.07;99671.53;5014500;28;20071;-76
2023/04/24 02:16:01;;;;;;;0.95;0.47;;;;;;;7.13;60.37;99665.25;5033554;28;20049;-76
2023/04/24 02:18:28;;;;;;;0.63;0.40;;;;;;;7.36;59.51;99668.59;5030031;28;20041;-75
2023/04/24 02:20:54;;;;;;;0.85;0.40;;;;;;;7.35;59.42;99664.28;5014048;28;20611;-76
2023/04/24 02:23:19;;;;;;;0.80;0.50;;;;;;;7.49;59.48;99659.31;5011548;28;20062;-76
2023/04/24 02:25:45;;;;;;;1.10;0.47;;;;;;;7.47;59.40;99661.97;5004808;28;20077;-76
2023/04/24 02:28:11;;;;;;;1.08;0.40;;;;;;;6.95;61.36;99658.28;5000820;28;20128;-75
2023/04/24 02:30:36;;;;;;;1.95;0.50;;;;;;;6.65;62.61;99656.13;5011567;28;20160;-76
2023/04/24 02:33:02;;;;;;;0.82;0.60;;;;;;;7.21;60.55;99655.38;5005318;28;20052;-76
2023/04/24 02:35:27;;;;;;;2.03;0.60;;;;;;;7.08;60.32;99656.84;5012757;28;20034;-76
2023/04/24 02:37:53;;;;;;;1.23;0.50;;;;;;;7.27;60.26;99651.66;5008055;28;20099;-75
2023/04/24 02:40:18;;;;;;;1.77;0.57;;;;;;;7.25;60.52;99650.88;5006808;28;20140;-75
2023/04/24 02:42:44;;;;;;;1.20;0.70;;;;;;;6.73;61.79;99655.78;5009643;28;20559;-76
2023/04/24 02:45:10;;;;;;;1.60;0.50;;;;;;;7.26;60.35;99648.19;5007276;28;20111;-72
2023/04/24 02:47:36;;;;;;;2.10;0.88;;;;;;;7.09;60.86;99645.53;5008097;28;20064;-72
2023/04/24 02:50:03;;;;;;;1.65;0.88;;;;;;;6.93;61.08;99652.31;5006586;28;20345;-72
2023/04/24 02:52:28;;;;;;;1.60;0.75;;;;;;;7.11;60.65;99648.91;4999602;28;20155;-72
2023/04/24 02:54:54;;;;;;;1.60;1.00;;;;;;;7.29;59.60;99642.03;5004818;28;20116;-72
2023/04/24 02:57:19;;;;;;;2.65;1.25;;;;;;;6.75;61.53;99649.59;5009162;28;20041;-72
2023/04/24 02:59:45;;;;;;;1.90;1.08;;;;;;;6.86;61.03;99643.94;5005017;28;20037;-72
2023/04/24 03:02:10;;;;;;;5.90;1.63;;;;;;;6.44;62.08;99653.53;4994037;28;20509;-71
2023/04/24 03:04:36;;;;;;;2.22;1.08;;;;;;;6.00;63.45;99656.19;5005236;28;21355;-76
2023/04/24 03:07:01;;;;;;;2.20;1.80;;;;;;;6.62;61.79;99648.44;4995302;28;20297;-76
2023/04/24 03:09:27;;;;;;;1.83;1.20;;;;;;;6.61;62.04;99647.63;5009875;28;20125;-77
2023/04/24 03:11:52;;;;;;;3.05;1.58;;;;;;;6.78;60.93;99646.91;4985985;28;20045;-77
2023/04/24 03:14:18;;;;;;;2.90;1.63;;;;;;;6.46;62.21;99656.91;5006382;28;20051;-76
2023/04/24 03:16:44;;;;;;;3.13;1.60;;;;;;;6.18;63.51;99653.75;5027503;28;20299;-76
2023/04/24 03:19:09;;;;;;;1.83;1.30;;;;;;;6.35;62.63;99653.94;5011251;28;20045;-76
2023/04/24 03:21:43;;;;;;;4.00;1.90;;;;;;;6.32;62.91;99653.22;4994220;28;20449;-76
2023/04/24 03:24:09;;;;;;;3.08;1.95;;;;;;;6.72;61.76;99657.53;5026319;28;20560;-76
2023/04/24 03:26:36;;;;;;;3.30;1.55;;;;;;;6.95;61.37;99659.13;5028076;28;20034;-75
2023/04/24 03:29:15;;;;;;;2.65;2.00;;;;;;;7.00;61.13;99661.53;5015216;28;20037;-79
2023/04/24 03:31:41;;;;;;;3.40;2.25;;;;;;;6.41;62.49;99656.25;5032163;28;20024;-80
2023/04/24 03:34:07;;;;;;;2.95;2.05;;;;;;;6.34;62.60;99652.22;5029164;28;20040;-72
2023/04/24 03:36:32;;;;;;;3.72;1.85;;;;;;;6.24;62.65;99651.75;5019295;28;20110;-68
2023/04/24 03:38:58;;;;;;;3.10;1.85;;;;;;;6.83;61.43;99654.50;5010540;28;20071;-68
2023/04/24 03:41:28;;;;;;;2.40;1.70;;;;;;;6.34;62.63;99665.22;5029796;28;20526;-69
2023/04/24 03:43:59;;;;;;;;;;;;;;;6.55;62.06;99654.81;5011235;28;20067;-70
2023/04/24 03:46:25;;;;;;;4.53;1.98;;;;;;;6.85;60.81;99656.09;5028668;28;19917;-69
2023/04/24 03:48:54;;;;;;;4.40;2.15;;;;;;;6.91;60.61;99653.25;5040937;28;20156;-70
2023/04/24 03:51:23;;;;;;;2.45;1.70;;;;;;;6.17;63.00;99654.66;5029134;28;20032;-70
2023/04/24 03:53:52;;;;;;;2.45;1.88;;;;;;;6.80;61.29;99655.47;5023391;28;20582;-70
2023/04/24 03:56:20;;;;;;;2.40;1.73;;;;;;;7.07;60.55;99660.34;5027943;28;20070;-68
2023/04/24 03:58:46;;;;;;;3.47;2.05;;;;;;;6.47;61.94;99662.94;5025336;28;20041;-69
2023/04/24 04:01:12;;;;;;;3.53;2.20;;;;;;;6.78;60.65;99661.66;5028285;28;20032;-71
2023/04/24 04:03:40;;;;;;;3.00;2.05;;;;;;;6.56;61.94;99664.31;5027122;28;20045;-69
2023/04/24 04:06:06;;;;;;;3.08;1.90;;;;;;;6.71;61.49;99666.25;5020653;28;20445;-71
2023/04/24 04:08:31;;;;;;;4.03;3.15;;;;;;;5.86;63.82;99666.28;5010120;28;20042;-73
2023/04/24 04:10:57;;;;;;;2.92;2.20;;;;;;;6.69;61.61;99673.28;5009667;28;20036;-67
2023/04/24 04:13:22;;;;;;;3.55;2.55;;;;;;;6.62;61.66;99677.00;5029808;28;20218;-68
2023/04/24 04:15:48;;;;;;;3.42;2.85;;;;;;;6.85;60.76;99676.88;5027466;28;20078;-67
2023/04/24 04:18:14;;;;;;;3.70;2.55;;;;;;;6.90;61.13;99685.31;5023436;28;20409;-68
2023/04/24 04:20:40;;;;;;;5.00;2.95;;;;;;;7.04;60.98;99679.53;5018275;28;20434;-68
2023/04/24 04:23:05;;;;;;;5.13;3.40;;;;;;;6.84;61.61;99682.13;5025876;28;20140;-71
2023/04/24 04:25:44;;;;;;;8.00;3.65;;;;;;;6.67;61.88;99685.47;5025856;28;20047;-71
2023/04/24 04:28:10;;;;;;;5.80;4.63;;;;;;;6.49;61.99;99687.94;5028939;28;20045;-72
2023/04/24 04:30:38;;;;;;;5.80;3.35;;;;;;;6.98;61.02;99685.00;5024749;28;20067;-69
2023/04/24 04:33:03;;;;;;;5.18;3.88;;;;;;;6.47;62.17;99691.50;5010384;28;20048;-68
2023/04/24 04:35:31;;;;;;;7.43;4.72;;;;;;;6.55;62.18;99696.38;5025068;28;20777;-69
2023/04/24 04:37:58;;;;;;;10.00;4.60;;;;;;;5.85;64.31;99701.72;5024268;28;20033;-70
2023/04/24 04:40:41;;;;;;;5.05;4.47;;;;;;;6.34;62.97;99698.94;5020053;28;20651;-70
2023/04/24 04:43:06;;;;;;;7.07;4.45;;;;;;;6.62;61.78;99702.97;5011030;28;20041;-69
2023/04/24 04:45:41;;;;;;;9.30;5.80;;;;;;;6.80;61.05;99703.97;5025845;28;20769;-69
2023/04/24 04:48:33;;;;;;;6.93;5.32;;;;;;;6.34;62.85;99719.72;5026017;28;20083;-69
2023/04/24 04:51:00;;;;;;;7.45;5.32;;;;;;;6.39;62.33;99715.16;5018967;28;20025;-69
2023/04/24 04:53:27;;;;;;;8.40;5.05;;;;;;;6.19;63.07;99715.09;5027281;28;20372;-70
2023/04/24 04:55:53;;;;;;;6.78;4.68;;;;;;;6.54;61.74;99716.28;5010429;28;20354;-70
2023/04/24 04:58:21;;;;;;;5.55;4.65;;;;;;;6.26;62.67;99716.53;5019190;28;20098;-69
2023/04/24 05:00:52;;;;;;;6.55;4.85;;;;;;;6.49;62.21;99721.69;5026391;28;20029;-69
2023/04/24 05:03:28;;;;;;;8.13;4.40;;;;;;;6.52;61.93;99727.66;5027203;28;20037;-70
2023/04/24 05:06:02;;;;;;;6.30;4.03;;;;;;;6.95;60.25;99725.81;5017615;28;20029;-69
2023/04/24 05:08:31;;;;;;;5.05;4.13;;;;;;;6.84;60.71;99724.56;5007302;28;20033;-69
2023/04/24 05:10:57;;;;;;;5.15;3.95;;;;;;;6.79;60.55;99725.66;5011097;28;20033;-70
2023/04/24 05:13:25;;;;;;;5.53;4.20;;;;;;;6.68;61.17;99726.09;5025501;28;20045;-69
2023/04/24 05:15:51;;;;;;;5.55;4.13;;;;;;;6.97;60.30;99730.03;5023975;28;20102;-69
2023/04/24 05:18:17;;;;;;;5.95;4.35;;;;;;;6.27;61.81;99729.47;5025324;28;20048;-70
2023/04/24 05:20:43;;;;;;;5.35;4.38;;;;;;;6.16;62.39;99736.84;5025006;28;20053;-69
2023/04/24 05:23:10;;;;;;;6.18;4.60;;;;;;;6.47;61.25;99736.47;5011776;28;20045;-69
2023/04/24 05:25:39;;;;;;;6.57;4.10;;;;;;;6.80;60.52;99741.16;5026558;28;20120;-69
2023/04/24 05:28:08;;;;;;;4.63;3.92;;;;;;;6.50;60.66;99741.53;5006092;28;20232;-68
2023/04/24 05:30:33;;;;;;;5.75;4.28;;;;;;;6.26;61.83;99745.09;5022880;28;20105;-69
2023/04/24 05:32:59;;;;;;;3.70;3.03;;;;;;;6.06;62.25;99746.75;5019354;28;20128;-72
2023/04/24 05:35:25;;;;;;;5.43;3.85;;;;;;;6.67;59.96;99743.44;5015264;28;20044;-72
2023/04/24 05:37:50;;;;;;;5.68;3.85;;;;;;;6.39;60.81;99746.31;5016641;28;20710;-73
2023/04/24 05:40:17;;;;;;;4.80;3.63;;;;;;;6.49;60.91;99757.19;5047691;28;20044;-72
2023/04/24 05:42:42;;;;;;;4.97;3.80;;;;;;;6.39;60.91;99754.09;5027411;28;20037;-72
2023/04/24 05:45:09;;;;;;;3.50;2.83;;;;;;;6.52;60.85;99761.41;5028495;28;20028;-70
2023/04/24 05:47:35;;;;;;;7.35;3.20;;;;;;;6.75;60.08;99761.28;5019212;28;20129;-70
2023/04/24 05:50:00;;;;;;;4.75;3.85;;;;;;;6.63;60.49;99761.81;5012680;28;20446;-70
2023/04/24 05:52:26;;;;;;;4.72;3.08;;;;;;;6.46;61.11;99760.75;5009520;28;20029;-69
2023/04/24 05:54:52;;;;;;;3.45;2.63;;;;;;;6.56;60.99;99765.56;5011412;28;20046;-70
2023/04/24 05:57:22;;;;;;;5.07;3.08;;;;;;;6.30;61.29;99764.84;5008570;28;20120;-71
2023/04/24 06:00:11;;;;;;;4.35;3.10;;;;;;;6.64;60.19;99768.66;5009356;28;20037;-70
2023/04/24 06:02:48;;;;;;;6.43;3.40;;;;;;;6.46;61.76;99765.06;5006213;28;20464;-69
2023/04/24 06:05:14;;;;;;;3.83;2.85;;;;;;;6.59;61.61;99765.44;5008955;28;20033;-69
2023/04/24 06:07:40;;;;;;;5.47;3.38;;;;;;;6.82;60.80;99775.72;4992271;28;20039;-69
2023/04/24 06:10:07;;;;;;;5.95;3.38;;;;;;;6.72;61.36;99769.22;5008734;28;20036;-67
2023/04/24 06:12:39;;;;;;;3.65;2.75;;;;;;;6.71;60.96;99775.31;5010064;28;20037;-71
2023/04/24 06:15:10;;;;;;;4.75;2.72;;;;;;;6.30;62.42;99775.22;5026398;28;20041;-71
2023/04/24 06:17:57;;;;;;;4.57;3.17;;;;;;;6.38;62.08;99787.91;5010432;28;20033;-69
2023/04/24 06:20:23;;;;;;;3.38;2.95;;;;;;;6.89;60.97;99784.94;5024101;28;20036;-69
2023/04/24 06:22:48;;;;;;;3.95;3.08;;;;;;;6.81;60.88;99787.00;5004549;28;20573;-68
2023/04/24 06:25:14;;;;;;;5.03;2.97;;;;;;;7.12;60.17;99791.75;4994459;28;20087;-69
2023/04/24 06:27:42;;;;;;;4.47;2.78;;;;;;;6.14;62.78;99792.28;4991230;28;20045;-68
2023/04/24 06:30:08;;;;;;;4.70;2.97;;;;;;;6.48;61.65;99795.28;5004547;28;20654;-69
2023/04/24 06:32:33;;;;;;;4.00;2.22;;;;;;;6.62;62.11;99793.84;5006380;28;20063;-67
2023/04/24 06:34:59;;;;;;;4.40;2.97;;;;;;;7.03;60.76;99796.50;5010077;28;20137;-69
2023/04/24 06:37:24;;;;;;;4.40;3.00;;;;;;;6.87;61.16;99799.75;5004229;28;20032;-68
2023/04/24 06:39:50;;;;;;;3.85;2.10;;;;;;;7.37;59.67;99790.69;5010296;28;20037;-69
2023/04/24 06:42:16;;;;;;;4.68;3.50;;;;;;;6.91;60.84;99793.50;5007928;28;20070;-69
2023/04/24 06:44:44;;;;;;;5.43;3.80;;;;;;;6.21;62.59;99788.53;5010918;28;20036;-68
2023/04/24 06:47:10;;;;;;;3.72;2.72;;;;;;;6.59;61.91;99786.19;5014048;28;20529;-68
2023/04/24 06:49:37;;;;;;;4.90;3.25;;;;;;;7.27;60.35;99794.63;5008781;28;20026;-68
2023/04/24 06:52:03;;;;;;;4.00;2.75;;;;;;;7.42;59.46;99795.69;5013682;28;20435;-68
2023/04/24 06:54:29;;;;;;;4.50;3.20;;;;;;;7.16;59.89;99797.66;5007807;28;20591;-69
2023/04/24 06:56:57;;;;;;;3.75;3.03;;;;;;;7.26;59.83;99790.31;5011809;28;20112;-68
2023/04/24 06:59:23;;;;;;;3.80;2.47;;;;;;;7.21;59.50;99790.50;5017564;28;21047;-69
2023/04/24 07:01:49;;;;;;;3.47;2.00;;;;;;;7.09;59.88;99804.88;5010846;28;20445;-69
2023/04/24 07:04:15;;;;;;;3.85;2.38;;;;;;;6.64;61.36;99799.81;5024939;28;20102;-69
2023/04/24 07:06:40;;;;;;;3.03;2.22;;;;;;;7.15;60.01;99801.16;5026215;28;20039;-69
2023/04/24 07:09:06;;;;;;;2.95;1.75;;;;;;;7.46;58.62;99795.47;5028191;28;20051;-68
2023/04/24 07:11:32;;;;;;;3.47;2.65;;;;;;;6.08;62.33;99802.00;5024583;28;20039;-69
2023/04/24 07:13:58;;;;;;;3.08;2.15;;;;;;;6.78;60.96;99802.72;5028204;28;20319;-69
2023/04/24 07:16:24;;;;;;;4.05;1.98;;;;;;;6.62;61.12;99791.25;5023813;28;20029;-69
2023/04/24 07:18:49;;;;;;;3.38;2.05;;;;;;;6.93;60.73;99795.19;5027634;28;20130;-69
2023/04/24 07:21:15;;;;;;;3.08;2.03;;;;;;;7.04;59.82;99804.25;5026327;28;20037;-68
2023/04/24 07:23:42;;;;;;;2.40;1.60;;;;;;;7.45;59.68;99799.00;5010352;28;20045;-68
2023/04/24 07:26:07;;;;;;;3.65;1.80;;;;;;;7.79;58.77;99804.47;5029781;28;20094;-69
2023/04/24 07:28:33;;;;;;;3.08;2.10;;;;;;;7.50;59.13;99806.59;4994785;28;20043;-68
2023/04/24 07:30:59;;;;;;;4.82;1.63;;;;;;;6.96;60.44;99808.91;5010558;28;20552;-69
2023/04/24 07:33:26;;;;;;;3.95;2.72;;;;;;;7.51;59.89;99809.13;5003205;28;20308;-69
2023/04/24 07:35:51;;;;;;;2.88;2.17;;;;;;;7.41;60.10;99813.03;5008444;28;20040;-69
2023/04/24 07:38:20;;;;;;;2.65;1.58;;;;;;;7.74;59.13;99815.94;5005113;28;20037;-70
2023/04/24 07:40:48;;;;;;;2.85;1.88;;;;;;;7.72;59.39;99817.75;5009684;28;20041;-69
2023/04/24 07:43:14;;;;;;;2.67;1.92;;;;;;;7.23;60.81;99834.63;5008945;28;20033;-69
2023/04/24 07:45:40;;;;;;;2.72;1.63;;;;;;;7.44;59.83;99825.06;5007489;28;20048;-69
2023/04/24 07:48:06;;;;;;;6.53;1.27;;;;;;;7.04;61.66;99839.75;4990083;28;20052;-69
2023/04/24 07:50:32;;;;;;;2.53;1.58;;;;;;;7.29;60.91;99832.63;5005721;28;20049;-69
2023/04/24 07:52:58;;;;;;;2.30;1.67;;;;;;;7.52;60.29;99833.38;5013642;28;20061;-68
2023/04/24 07:55:25;;;;;;;2.05;1.40;;;;;;;7.73;59.17;99827.25;5021280;28;20243;-69
2023/04/24 07:57:51;;;;;;;2.55;1.42;;;;;;;7.00;60.31;99844.25;5021260;28;20448;-68
2023/04/24 08:00:17;;;;;;;2.00;1.17;;;;;;;7.71;59.26;99831.69;5025555;28;20515;-68
2023/04/24 08:02:43;;;;;;;2.08;1.15;;;;;;;7.70;59.22;99829.97;5023187;28;20043;-69
2023/04/24 08:05:11;;;;;;;2.63;1.58;;;;;;;8.19;57.85;99839.09;5028809;28;20130;-69
2023/04/24 08:07:37;;;;;;;3.08;2.03;;;;;;;7.59;58.87;99849.59;5022778;28;20416;-69
2023/04/24 08:10:03;;;;;;;3.50;1.48;;;;;;;7.45;59.79;99845.78;5029867;28;20041;-68
2023/04/24 08:12:29;;;;;;;1.95;1.17;;;;;;;8.04;58.36;99840.63;5022538;28;20040;-67
2023/04/24 08:14:55;;;;;;;5.55;1.20;;;;;;;7.79;58.69;99849.53;5009627;28;20122;-68
2023/04/24 08:17:21;;;;;;;1.83;1.27;;;;;;;7.78;58.37;99847.88;5016459;28;20028;-69
2023/04/24 08:19:50;;;;;;;1.55;0.80;;;;;;;7.35;60.04;99849.69;5026601;28;20564;-70
2023/04/24 08:22:16;;;;;;;1.92;1.00;;;;;;;6.81;61.56;99854.53;5027894;28;20041;-69
2023/04/24 08:24:42;;;;;;;2.30;1.08;;;;;;;7.72;60.03;99859.38;5025797;28;20040;-69
2023/04/24 08:27:08;;;;;;;1.80;1.02;;;;;;;7.71;59.52;99852.50;5029485;28;20044;-68
2023/04/24 08:29:34;;;;;;;1.77;1.05;;;;;;;7.72;59.56;99855.94;5021828;28;20106;-68
2023/04/24 08:31:59;;;;;;;1.83;1.05;;;;;;;7.87;59.59;99851.78;5028770;28;20037;-68
2023/04/24 08:34:25;;;;;;;1.52;1.10;;;;;;;7.51;60.35;99857.66;5025129;28;20056;-69
2023/04/24 08:36:50;;;;;;;1.95;1.27;;;;;;;7.84;59.33;99863.19;5024375;28;20448;-68
2023/04/24 08:39:17;;;;;;;1.80;1.08;;;;;;;7.45;59.82;99866.59;5028324;28;20545;-68
2023/04/24 08:41:45;;;;;;;1.52;0.80;;;;;;;7.70;59.57;99871.59;5023777;28;20438;-69
2023/04/24 08:44:11;;;;;;;1.83;1.17;;;;;;;8.12;58.69;99868.00;5021212;28;20064;-69
2023/04/24 08:46:37;;;;;;;1.70;0.88;;;;;;;8.43;58.82;99868.34;5023062;28;20290;-69
2023/04/24 08:49:03;;;;;;;1.77;1.00;;;;;;;7.81;60.66;99880.69;5025350;28;20037;-69
2023/04/24 08:51:30;;;;;;;1.90;1.17;;;;;;;8.44;59.65;99883.03;5026953;28;20664;-68
2023/04/24 08:53:57;;;;;;;1.90;0.85;;;;;;;8.41;58.40;99873.59;5027908;28;20114;-68
2023/04/24 08:56:23;;;;;;;1.25;0.68;;;;;;;7.87;59.40;99876.06;5025230;28;20033;-68
2023/04/24 08:58:51;;;;;;;1.55;0.77;;;;;;;8.25;59.26;99888.22;5026405;28;20045;-69
2023/04/24 09:01:19;;;;;;;1.27;0.60;;;;;;;8.29;58.82;99887.19;5027772;28;20534;-69
2023/04/24 09:03:49;;;;;;;1.48;0.50;;;;;;;8.37;58.61;99892.91;5026105;28;20198;-66
2023/04/24 09:06:17;;;;;;;1.08;0.43;;;;;;;8.58;58.12;99896.25;5030200;28;20166;-67
2023/04/24 09:08:43;;;;;;;1.70;0.82;;;;;;;8.77;57.88;99897.09;5012172;28;20032;-69
2023/04/24 09:11:09;;;;;;;1.45;0.63;;;;;;;8.87;57.28;99901.84;5030067;28;20120;-69
2023/04/24 09:13:35;;;;;;;1.58;0.80;;;;;;;8.43;59.01;99908.25;5029596;28;20037;-68
2023/04/24 09:16:01;;;;;;;2.08;1.30;;;;;;;8.56;58.33;99909.34;5033220;28;20033;-69
2023/04/24 09:18:27;;;;;;;2.72;2.13;;;;;;;8.77;57.81;99912.72;5029088;28;20467;-68
2023/04/24 09:21:08;;;;;;;4.40;2.38;;;;;;;8.69;57.52;99911.38;5032756;28;20059;-68
2023/04/24 09:23:34;;;;;;;6.47;2.77;;;;;;;8.53;57.59;99922.50;5029221;28;20066;-68
2023/04/24 09:26:02;;;;;;;5.78;3.33;;;;;;;8.57;57.11;99924.06;5033271;28;20302;-68
2023/04/24 09:28:31;;;;;;;3.28;2.20;;;;;;;8.38;57.50;99924.97;5031661;28;20677;-68
2023/04/24 09:31:18;;;;;;;3.97;2.80;;;;;;;8.65;56.12;99933.25;5031188;28;20131;-68
2023/04/24 09:34:05;;;;;;;4.78;1.92;;;;;;;8.34;57.15;99929.50;5028074;28;20048;-69
2023/04/24 09:36:36;;;;;;;4.32;3.08;;;;;;;8.33;57.34;99933.00;5031631;28;20364;-68
2023/04/24 09:39:05;;;;;;;5.00;2.97;;;;;;;8.13;57.14;99931.28;5030259;28;20673;-69
2023/04/24 09:41:32;;;;;;;5.97;2.22;;;;;;;7.96;57.54;99934.66;5028872;28;20037;-69
2023/04/24 09:44:11;;;;;;;3.53;2.15;;;;;;;8.40;56.84;99933.56;5030649;28;20445;-67
2023/04/24 09:46:36;;;;;;;3.92;1.52;;;;;;;8.37;56.64;99939.75;5028007;28;20029;-69
2023/04/24 09:49:11;;;;;;;5.00;2.05;;;;;;;8.31;57.21;99942.63;5027399;28;20084;-68
2023/04/24 09:51:37;;;;;;;6.53;2.35;;;;;;;8.29;57.21;99949.66;5029511;28;20078;-69
2023/04/24 09:54:04;;;;;;;4.28;1.60;;;;;;;8.59;56.25;99949.19;5021824;28;21011;-68
2023/04/24 09:56:34;;;;;;;6.47;1.42;;;;;;;8.25;57.08;99953.31;5026491;28;20456;-69
2023/04/24 09:59:06;;;;;;;3.17;1.02;;;;;;;7.81;57.97;99956.97;5030972;28;20297;-69
2023/04/24 10:01:33;;;;;;;6.72;1.38;;;;;;;7.62;58.21;99958.66;5029855;28;20128;-69
2023/04/24 10:03:59;;;;;;;5.75;1.05;;;;;;;7.76;57.78;99963.28;5032288;28;20091;-69
2023/04/24 10:06:35;;;;;;;3.33;1.02;;;;;;;7.25;57.89;99953.22;5021737;28;20061;-69
2023/04/24 10:09:01;;;;;;;1.98;0.90;;;;;;;7.21;59.06;99967.22;5031018;28;20045;-69
2023/04/24 10:11:27;;;;;;;1.98;1.00;;;;;;;7.87;58.01;99972.34;5028504;28;20056;-68
2023/04/24 10:13:53;;;;;;;2.47;0.77;;;;;;;7.92;57.16;99972.13;5028903;28;20049;-69
2023/04/24 10:16:22;;;;;;;3.50;1.83;;;;;;;7.46;57.89;99971.44;5029290;28;20036;-68
2023/04/24 10:18:48;;;;;;;5.35;1.40;;;;;;;8.06;56.87;99977.56;5036923;28;20106;-70
2023/04/24 10:21:14;;;;;;;4.65;2.58;;;;;;;8.29;56.32;99981.78;5028473;28;20036;-69
2023/04/24 10:23:42;;;;;;;8.38;3.50;;;;;;;7.78;57.11;99987.47;5026202;28;20094;-68
2023/04/24 10:26:09;;;;;;;12.20;5.65;;;;;;;7.54;57.47;99987.56;5016650;28;20079;-69
2023/04/24 10:28:36;;;;;;;9.98;5.57;;;;;;;7.20;57.98;99985.47;5025118;28;20540;-69
2023/04/24 10:31:02;;;;;;;16.90;7.65;;;;;;;7.32;57.90;99985.84;5033237;28;20040;-69
2023/04/24 10:33:29;;;;;;;14.10;5.85;;;;;;;6.96;58.52;100002.91;5028440;28;20037;-68
2023/04/24 10:35:56;;;;;;;10.80;6.63;;;;;;;7.19;57.78;99999.41;5025570;28;20029;-68
2023/04/24 10:38:25;;;;;;;11.65;6.15;;;;;;;6.93;58.61;100008.19;5030166;28;20494;-69
2023/04/24 10:40:51;;;;;;;12.52;6.25;;;;;;;7.49;57.42;100005.13;5029175;28;21496;-69
2023/04/24 10:43:18;;;;;;;18.33;6.57;;;;;;;7.39;57.22;100014.19;5007255;28;20041;-69
2023/04/24 10:46:01;;;;;;;11.32;6.35;;;;;;;6.98;58.26;100012.34;5034126;28;20139;-69
2023/04/24 10:48:27;;;;;;;12.88;5.85;;;;;;;7.42;57.27;100021.84;5026649;28;20044;-69
2023/04/24 10:50:53;;;;;;;9.63;5.53;;;;;;;7.10;58.06;100016.19;5029435;28;20056;-68
2023/04/24 10:53:26;;;;;;;9.52;5.55;;;;;;;7.03;57.79;100019.94;5029931;28;20643;-68
2023/04/24 10:55:58;;;;;;;10.13;5.78;;;;;;;7.18;57.99;100026.31;5026156;28;20037;-69
2023/04/24 10:58:25;;;;;;;;;;;;;;;7.47;57.05;100028.56;5031047;28;20037;-69
2023/04/24 11:00:58;;;;;;;14.07;7.32;;;;;;;7.35;57.39;100033.41;5043167;28;20282;-69
2023/04/24 11:03:29;;;;;;;17.13;7.85;;;;;;;7.41;57.10;100038.38;5041894;28;20053;-69
2023/04/24 11:05:58;;;;;;;11.95;7.40;;;;;;;7.39;57.69;100038.44;5029032;28;20029;-69
2023/04/24 11:08:26;;;;;;;12.77;7.22;;;;;;;7.24;57.21;100045.06;5027315;28;20257;-69
2023/04/24 11:11:03;;;;;;;9.90;6.32;;;;;;;7.30;56.99;100050.03;5026819;28;20520;-70
2023/04/24 11:13:55;;;;;;;11.55;6.40;;;;;;;7.53;56.52;100054.34;5019364;28;20138;-69
2023/04/24 11:16:28;;;;;;;24.38;6.80;;;;;;;6.88;58.08;100063.78;5030300;28;20053;-69
2023/04/24 11:19:02;;;;;;;12.05;7.50;;;;;;;7.09;57.73;100059.53;5017440;28;20072;-69
2023/04/24 11:21:49;;;;;;;16.33;7.75;;;;;;;6.88;58.03;100063.78;5013508;28;20074;-69
2023/04/24 11:24:39;;;;;;;17.90;8.95;;;;;;;7.49;57.32;100067.53;5026955;28;20059;-70
2023/04/24 11:27:17;;;;;;;13.38;7.45;;;;;;;7.19;57.67;100066.97;5029529;28;20608;-69
2023/04/24 11:29:47;;;;;;;;;;;;;;;7.21;57.19;100060.81;5026345;28;20044;-70
2023/04/24 11:32:23;;;;;;;18.77;8.38;;;;;;;7.28;57.20;100072.66;5012363;28;19959;-68
2023/04/24 11:34:52;;;;;;;17.75;8.52;;;;;;;6.99;57.35;100078.97;5026414;28;20037;-69
2023/04/24 11:37:17;;;;;;;23.67;9.63;;;;;;;6.80;58.15;100085.78;5021771;28;20065;-69
2023/04/24 11:39:43;;;;;;;16.90;8.85;;;;;;;7.01;57.58;100084.09;5023079;28;20029;-70
2023/04/24 11:42:09;;;;;;;28.15;9.90;;;;;;;6.64;58.38;100093.25;5028642;28;20501;-69
2023/04/24 11:44:39;;;;;;;19.85;9.15;;;;;;;6.60;58.27;100091.69;5022766;28;20044;-68